Time;durP1;ratioP1;P1;durP2;ratioP2;P2;SDS_P1;SDS_P2;PMS_P1;PMS_P2;Temp;Humidity;BMP_temperature;BMP_pressure;BME280_temperature;BME280_humidity;BME280_pressure;Samples;Min_cycle;Max_cycle;Signal;HPM_P1;HPM_P2
2024/01/08 00:01:17;;;;;;;39.80;13.88;;;;;;;-2.15;100.00;97730.47;4978020;28;20470;-78
2024/01/08 00:03:44;;;;;;;37.10;13.60;;;;;;;-2.14;100.00;97724.31;4987516;28;20410;-78
2024/01/08 00:06:11;;;;;;;40.35;13.50;;;;;;;-2.15;100.00;97731.28;4997916;28;20759;-78
2024/01/08 00:08:37;;;;;;;34.65;13.75;;;;;;;-2.17;100.00;97733.22;4998143;28;20391;-78
2024/01/08 00:11:03;;;;;;;35.72;13.60;;;;;;;-2.18;100.00;97731.59;4997681;28;20434;-78
2024/01/08 00:13:29;;;;;;;30.15;12.13;;;;;;;-2.17;100.00;97729.81;4996803;28;20413;-78
2024/01/08 00:15:55;;;;;;;35.77;13.70;;;;;;;-2.18;100.00;97726.41;4997316;28;20413;-78
2024/01/08 00:18:22;;;;;;;36.45;13.15;;;;;;;-2.20;100.00;97724.97;4997188;28;20410;-78
2024/01/08 00:20:50;;;;;;;35.80;12.80;;;;;;;-2.21;100.00;97733.72;4995540;28;20554;-78
2024/01/08 00:23:16;;;;;;;32.53;13.40;;;;;;;-2.21;100.00;97728.53;4997092;28;20486;-78
2024/01/08 00:25:42;;;;;;;35.15;13.68;;;;;;;-2.23;100.00;97726.09;4997144;28;20445;-78
2024/01/08 00:28:08;;;;;;;40.25;15.13;;;;;;;-2.23;100.00;97730.47;4997073;28;20395;-78
2024/01/08 00:30:34;;;;;;;34.85;12.60;;;;;;;-2.24;100.00;97732.25;4996974;28;20420;-78
2024/01/08 00:33:00;;;;;;;31.90;12.73;;;;;;;-2.23;100.00;97728.69;4997060;28;20855;-78
2024/01/08 00:35:26;;;;;;;31.08;12.90;;;;;;;-2.23;100.00;97733.88;4996854;28;20407;-78
2024/01/08 00:37:54;;;;;;;33.42;13.65;;;;;;;-2.23;100.00;97739.06;4997385;28;20481;-78
2024/01/08 00:40:20;;;;;;;31.48;12.65;;;;;;;-2.23;100.00;97735.66;4997443;28;20422;-78
2024/01/08 00:42:46;;;;;;;36.78;14.07;;;;;;;-2.23;100.00;97740.84;4996674;28;20428;-78
2024/01/08 00:45:12;;;;;;;34.60;13.15;;;;;;;-2.23;100.00;97740.84;4997057;28;20434;-78
2024/01/08 00:47:40;;;;;;;32.58;13.60;;;;;;;-2.23;100.00;97736.47;4996893;28;20454;-78
2024/01/08 00:50:10;;;;;;;29.33;12.23;;;;;;;-2.24;100.00;97734.84;4996879;28;20398;-78
2024/01/08 00:52:36;;;;;;;30.52;13.07;;;;;;;-2.24;100.00;97739.22;4996286;28;20414;-78
2024/01/08 00:55:05;;;;;;;38.38;15.75;;;;;;;-2.23;100.00;97733.06;4996037;28;20449;-78
2024/01/08 00:57:31;;;;;;;33.75;13.02;;;;;;;-2.24;100.00;97734.84;4996501;28;20478;-78
2024/01/08 00:59:58;;;;;;;35.55;13.30;;;;;;;-2.25;100.00;97735.81;4996018;28;20449;-78
2024/01/08 01:02:24;;;;;;;31.15;12.98;;;;;;;-2.25;100.00;97735.81;4994677;28;20786;-78
2024/01/08 01:04:50;;;;;;;34.23;12.20;;;;;;;-2.26;100.00;97736.81;4995656;28;20413;-78
2024/01/08 01:07:16;;;;;;;27.30;11.57;;;;;;;-2.25;100.00;97741.00;4995865;28;20821;-78
2024/01/08 01:09:42;;;;;;;25.88;11.25;;;;;;;-2.25;100.00;97735.81;4996276;28;20399;-78
2024/01/08 01:12:10;;;;;;;26.87;11.13;;;;;;;-2.23;100.00;97741.66;4996575;28;20868;-77
2024/01/08 01:14:36;;;;;;;28.35;11.85;;;;;;;-2.24;100.00;97742.63;4995607;28;20429;-78
2024/01/08 01:17:03;;;;;;;28.88;12.05;;;;;;;-2.24;100.00;97739.22;4995635;28;20552;-77
2024/01/08 01:19:29;;;;;;;35.70;14.23;;;;;;;-2.25;100.00;97742.78;4996608;28;20875;-77
2024/01/08 01:21:56;;;;;;;35.55;13.98;;;;;;;-2.26;100.00;97742.00;4997495;28;20485;-76
2024/01/08 01:24:22;;;;;;;36.67;14.35;;;;;;;-2.25;100.00;97750.56;4997605;28;20429;-77
2024/01/08 01:26:48;;;;;;;36.50;14.00;;;;;;;-2.26;100.00;97748.97;4997622;28;20986;-76
2024/01/08 01:29:16;;;;;;;34.38;14.10;;;;;;;-2.27;100.00;97748.16;4997022;28;20470;-76
2024/01/08 01:31:43;;;;;;;31.23;12.93;;;;;;;-2.28;100.00;97751.72;4997728;28;20883;-76
2024/01/08 01:34:10;;;;;;;29.35;12.13;;;;;;;-2.27;100.00;97760.31;4996658;28;20418;-76
2024/01/08 01:36:37;;;;;;;30.60;13.40;;;;;;;-2.29;100.00;97757.88;4998039;28;20431;-76
2024/01/08 01:39:03;;;;;;;34.28;13.95;;;;;;;-2.28;100.00;97753.50;4997972;28;20409;-77
2024/01/08 01:41:29;;;;;;;34.65;13.93;;;;;;;-2.28;100.00;97763.88;4996196;28;20460;-77
2024/01/08 01:43:55;;;;;;;36.33;14.57;;;;;;;-2.29;100.00;97754.47;4994561;28;20755;-77
2024/01/08 01:46:30;;;;;;;39.13;15.20;;;;;;;-2.30;100.00;97760.63;4993390;28;20402;-77
2024/01/08 01:48:56;;;;;;;32.05;13.50;;;;;;;-2.31;100.00;97756.41;4993176;28;20485;-77
2024/01/08 01:51:22;;;;;;;38.13;14.70;;;;;;;-2.31;100.00;97759.00;4993060;28;20394;-77
2024/01/08 01:53:49;;;;;;;35.50;14.65;;;;;;;-2.31;100.00;97759.00;4992949;28;20521;-77
2024/01/08 01:56:16;;;;;;;33.30;13.55;;;;;;;-2.32;100.00;97753.00;4993784;28;20496;-77
2024/01/08 01:58:43;;;;;;;31.13;12.82;;;;;;;-2.33;100.00;97756.56;4993567;28;20402;-77
2024/01/08 02:01:09;;;;;;;31.70;12.63;;;;;;;-2.31;100.00;97753.81;4993716;28;20872;-77
2024/01/08 02:03:37;;;;;;;28.92;12.48;;;;;;;-2.31;100.00;97757.22;4992677;28;20441;-77
2024/01/08 02:06:08;;;;;;;31.02;12.95;;;;;;;-2.31;100.00;97757.22;4993133;28;20786;-77
2024/01/08 02:08:35;;;;;;;36.53;14.48;;;;;;;-2.30;100.00;97753.66;4993245;28;20729;-77
2024/01/08 02:11:03;;;;;;;35.47;14.13;;;;;;;-2.30;100.00;97756.25;4993511;28;20406;-77
2024/01/08 02:13:29;;;;;;;31.52;13.30;;;;;;;-2.31;100.00;97749.44;4991893;28;20481;-77
2024/01/08 02:15:55;;;;;;;35.40;14.38;;;;;;;-2.31;100.00;97743.44;4993390;28;20432;-77
2024/01/08 02:18:22;;;;;;;32.70;13.48;;;;;;;-2.31;100.00;97738.25;4993143;28;20753;-77
2024/01/08 02:20:50;;;;;;;29.77;12.77;;;;;;;-2.31;100.00;97741.66;4992541;28;20406;-77
2024/01/08 02:23:17;;;;;;;33.35;12.85;;;;;;;-2.30;100.00;97739.88;4993077;28;20453;-77
2024/01/08 02:25:43;;;;;;;34.75;13.82;;;;;;;-2.31;100.00;97736.47;4992858;28;20399;-77
2024/01/08 02:28:09;;;;;;;33.05;13.82;;;;;;;-2.32;100.00;97734.84;4993281;28;20883;-77
2024/01/08 02:30:35;;;;;;;35.50;14.15;;;;;;;-2.33;100.00;97737.63;4993347;28;20413;-78
2024/01/08 02:33:02;;;;;;;34.60;13.73;;;;;;;-2.33;100.00;97735.03;4993867;28;20986;-77
2024/01/08 02:35:28;;;;;;;34.00;13.70;;;;;;;-2.33;100.00;97735.03;4994228;28;20399;-77
2024/01/08 02:37:54;;;;;;;31.33;13.02;;;;;;;-2.33;100.00;97738.41;4994521;28;20472;-78
2024/01/08 02:40:21;;;;;;;34.73;14.33;;;;;;;-2.33;100.00;97733.22;4993743;28;20488;-78
2024/01/08 02:42:48;;;;;;;41.00;15.67;;;;;;;-2.35;100.00;97735.19;4993975;28;20468;-78
2024/01/08 02:45:14;;;;;;;33.05;13.80;;;;;;;-2.36;100.00;97736.97;4996544;28;20398;-78
2024/01/08 02:47:40;;;;;;;34.15;13.85;;;;;;;-2.35;100.00;97730.00;4997092;28;20406;-78
2024/01/08 02:50:07;;;;;;;34.80;14.18;;;;;;;-2.35;100.00;97742.97;4997509;28;20780;-78
2024/01/08 02:52:34;;;;;;;33.78;13.70;;;;;;;-2.35;100.00;97743.78;4997511;28;20418;-77
2024/01/08 02:55:00;;;;;;;36.53;15.13;;;;;;;-2.35;100.00;97741.19;4996914;28;20454;-78
2024/01/08 02:57:29;;;;;;;35.15;14.27;;;;;;;-2.35;100.00;97743.78;4997148;28;20402;-78
2024/01/08 02:59:55;;;;;;;32.42;14.35;;;;;;;-2.36;100.00;97747.34;4997075;28;20805;-78
2024/01/08 03:02:21;;;;;;;33.78;14.48;;;;;;;-2.35;100.00;97743.78;4996894;28;20914;-78
2024/01/08 03:04:47;;;;;;;35.10;15.18;;;;;;;-2.35;100.00;97751.56;4996889;28;20470;-77
2024/01/08 03:07:17;;;;;;;35.87;14.47;;;;;;;-2.34;100.00;97747.19;4996889;28;20399;-78
2024/01/08 03:09:44;;;;;;;29.73;13.05;;;;;;;-2.33;100.00;97760.97;4996670;28;20872;-78
2024/01/08 03:12:10;;;;;;;38.88;15.13;;;;;;;-2.33;100.00;97754.78;4996327;28;20402;-78
2024/01/08 03:14:38;;;;;;;37.90;14.90;;;;;;;-2.33;100.00;97760.97;4996597;28;20402;-77
2024/01/08 03:17:04;;;;;;;38.07;16.23;;;;;;;-2.33;100.00;97758.38;4996981;28;20448;-78
2024/01/08 03:19:31;;;;;;;48.73;19.43;;;;;;;-2.35;100.00;97759.31;4997512;28;20434;-77
2024/01/08 03:21:59;;;;;;;47.72;18.38;;;;;;;-2.36;100.00;97762.06;4996951;28;20875;-78
2024/01/08 03:24:25;;;;;;;37.72;15.75;;;;;;;-2.37;100.00;97753.47;4996227;28;20490;-78
2024/01/08 03:26:51;;;;;;;35.53;15.50;;;;;;;-2.36;100.00;97756.88;4996599;28;20430;-78
2024/01/08 03:29:17;;;;;;;37.70;15.77;;;;;;;-2.35;100.00;97748.97;4995823;28;20459;-78
2024/01/08 03:31:45;;;;;;;35.72;15.25;;;;;;;-2.35;100.00;97751.56;4997064;28;20465;-78
2024/01/08 03:34:12;;;;;;;39.95;16.90;;;;;;;-2.34;100.00;97744.59;4997071;28;20911;-77
2024/01/08 03:36:38;;;;;;;37.00;16.73;;;;;;;-2.35;100.00;97745.56;4996354;28;20415;-78
2024/01/08 03:39:04;;;;;;;36.93;15.93;;;;;;;-2.36;100.00;97744.75;4995972;28;20417;-77
2024/01/08 03:41:30;;;;;;;34.40;16.10;;;;;;;-2.37;100.00;97744.91;4996362;28;20410;-78
2024/01/08 03:43:56;;;;;;;33.75;15.48;;;;;;;-2.36;100.00;97738.75;4995787;28;20494;-77
2024/01/08 03:46:23;;;;;;;31.10;14.80;;;;;;;-2.36;100.00;97749.13;4995679;28;20958;-77
2024/01/08 03:48:50;;;;;;;30.73;13.63;;;;;;;-2.36;100.00;97743.94;4995947;28;20398;-78
2024/01/08 03:51:16;;;;;;;29.15;13.07;;;;;;;-2.35;100.00;97742.97;4994830;28;20489;-77
2024/01/08 03:53:42;;;;;;;29.77;13.45;;;;;;;-2.35;100.00;97746.38;4996352;28;20457;-77
2024/01/08 03:56:09;;;;;;;27.00;13.05;;;;;;;-2.33;100.00;97742.81;4996822;28;20398;-77
2024/01/08 03:58:37;;;;;;;29.30;13.30;;;;;;;-2.33;100.00;97736.63;4996323;28;20636;-78
2024/01/08 04:01:04;;;;;;;30.55;13.23;;;;;;;-2.32;100.00;97742.63;4995849;28;20410;-78
2024/01/08 04:03:30;;;;;;;41.75;17.52;;;;;;;-2.33;100.00;97744.41;4995306;28;20406;-77
2024/01/08 04:05:57;;;;;;;37.47;16.23;;;;;;;-2.33;100.00;97748.78;4995852;28;20434;-77
2024/01/08 04:08:23;;;;;;;34.58;14.40;;;;;;;-2.33;100.00;97744.41;4995967;28;20410;-77
2024/01/08 04:10:49;;;;;;;32.97;14.45;;;;;;;-2.33;100.00;97743.59;4995136;28;20425;-78
2024/01/08 04:13:16;;;;;;;32.50;14.77;;;;;;;-2.32;100.00;97750.41;4994881;28;20414;-77
2024/01/08 04:15:42;;;;;;;33.55;14.13;;;;;;;-2.31;100.00;97746.03;4994831;28;20733;-77
2024/01/08 04:18:08;;;;;;;43.05;18.27;;;;;;;-2.32;100.00;97750.41;4995359;28;20799;-78
2024/01/08 04:20:34;;;;;;;37.90;16.50;;;;;;;-2.32;100.00;97753.00;4995047;28;20425;-77
2024/01/08 04:23:02;;;;;;;40.10;16.00;;;;;;;-2.31;100.00;97746.03;4995033;28;20489;-77
2024/01/08 04:25:28;;;;;;;36.97;16.30;;;;;;;-2.31;100.00;97748.63;4994971;28;20411;-77
2024/01/08 04:27:55;;;;;;;34.70;14.98;;;;;;;-2.31;100.00;97756.41;4994937;28;20503;-77
2024/01/08 04:30:21;;;;;;;40.40;16.30;;;;;;;-2.31;100.00;97748.63;4994523;28;20409;-77
2024/01/08 04:32:47;;;;;;;43.92;18.10;;;;;;;-2.33;100.00;97746.19;4994921;28;20422;-77
2024/01/08 04:35:13;;;;;;;41.10;17.27;;;;;;;-2.33;100.00;97758.38;4994922;28;20401;-77
2024/01/08 04:37:40;;;;;;;40.25;16.60;;;;;;;-2.35;100.00;97751.56;4994895;28;20406;-77
2024/01/08 04:40:09;;;;;;;43.60;17.27;;;;;;;-2.33;100.00;97759.16;4995353;28;20407;-77
2024/01/08 04:42:35;;;;;;;44.15;18.77;;;;;;;-2.36;100.00;97760.28;4993832;28;20567;-77
2024/01/08 04:45:01;;;;;;;42.70;18.10;;;;;;;-2.36;100.00;97772.44;4993987;28;20478;-78
2024/01/08 04:47:27;;;;;;;43.30;18.63;;;;;;;-2.38;100.00;97770.00;4994047;28;20410;-78
2024/01/08 04:49:53;;;;;;;42.65;18.73;;;;;;;-2.39;100.00;97776.16;4994132;28;20407;-77
2024/01/08 04:52:20;;;;;;;42.53;18.93;;;;;;;-2.40;100.00;97769.34;4994478;28;20405;-77
2024/01/08 04:54:46;;;;;;;37.92;17.33;;;;;;;-2.40;100.00;97771.94;4994596;28;20410;-77
2024/01/08 04:57:14;;;;;;;36.83;17.00;;;;;;;-2.39;100.00;97770.16;4994712;28;20398;-78
2024/01/08 04:59:40;;;;;;;40.60;17.52;;;;;;;-2.39;100.00;97770.16;4994482;28;20438;-79
2024/01/08 05:02:06;;;;;;;47.45;20.85;;;;;;;-2.39;100.00;97772.75;4991132;28;20513;-78
2024/01/08 05:04:32;;;;;;;43.63;19.23;;;;;;;-2.41;100.00;97775.53;4986873;28;20406;-78
2024/01/08 05:06:58;;;;;;;40.40;18.67;;;;;;;-2.43;100.00;97779.25;4995576;28;20569;-78
2024/01/08 05:09:25;;;;;;;43.55;19.83;;;;;;;-2.44;100.00;97781.03;4998220;28;20456;-78
2024/01/08 05:11:51;;;;;;;44.30;19.70;;;;;;;-2.45;100.00;97773.41;4984670;28;20459;-77
2024/01/08 05:14:18;;;;;;;39.80;17.60;;;;;;;-2.45;100.00;97776.00;4981868;28;20412;-77
2024/01/08 05:16:44;;;;;;;36.55;16.80;;;;;;;-2.44;100.00;97775.84;4976376;28;20794;-77
2024/01/08 05:19:11;;;;;;;33.83;15.68;;;;;;;-2.43;100.00;97781.84;4985678;28;20404;-77
2024/01/08 05:21:37;;;;;;;35.30;15.40;;;;;;;-2.42;100.00;97786.03;4990520;28;20887;-77
2024/01/08 05:24:04;;;;;;;35.28;16.73;;;;;;;-2.41;100.00;97779.91;4993589;28;20450;-78
2024/01/08 05:26:30;;;;;;;37.03;17.40;;;;;;;-2.42;100.00;97786.03;4993863;28;20399;-78
2024/01/08 05:28:56;;;;;;;39.55;17.85;;;;;;;-2.43;100.00;97779.25;4994372;28;20395;-78
2024/01/08 05:31:24;;;;;;;44.50;19.20;;;;;;;-2.45;100.00;97787.16;4988101;28;20396;-79
2024/01/08 05:33:50;;;;;;;40.57;18.83;;;;;;;-2.45;100.00;97784.56;4977665;28;20431;-78
2024/01/08 05:36:16;;;;;;;43.22;18.70;;;;;;;-2.46;100.00;97784.72;4977856;28;20413;-77
2024/01/08 05:38:42;;;;;;;48.47;21.88;;;;;;;-2.46;100.00;97789.91;4974762;28;20479;-76
2024/01/08 05:41:09;;;;;;;45.80;20.73;;;;;;;-2.48;100.00;97787.47;4976022;28;20773;-78
2024/01/08 05:43:37;;;;;;;44.47;19.63;;;;;;;-2.48;100.00;97786.69;4977187;28;20416;-78
2024/01/08 05:46:05;;;;;;;43.95;19.85;;;;;;;-2.49;100.00;97788.47;5013809;28;20501;-78
2024/01/08 05:48:39;;;;;;;42.88;19.85;;;;;;;-2.49;100.00;97785.88;5013740;28;20393;-78
2024/01/08 05:51:06;;;;;;;41.80;18.48;;;;;;;-2.48;100.00;97790.06;5013924;28;20404;-80
2024/01/08 05:53:32;;;;;;;37.90;17.08;;;;;;;-2.48;100.00;97797.84;5014640;28;20412;-77
2024/01/08 05:55:59;;;;;;;37.92;17.35;;;;;;;-2.46;100.00;97795.09;5013845;28;20393;-77
2024/01/08 05:58:25;;;;;;;38.35;17.63;;;;;;;-2.47;100.00;97796.88;5014089;28;20405;-78
2024/01/08 06:00:54;;;;;;;33.88;16.65;;;;;;;-2.47;100.00;97799.47;5016931;28;20411;-78
2024/01/08 06:03:22;;;;;;;37.50;17.65;;;;;;;-2.46;100.00;97801.09;5009797;28;20414;-77
2024/01/08 06:05:50;;;;;;;39.00;17.45;;;;;;;-2.47;100.00;97794.28;4994713;28;20395;-77
2024/01/08 06:08:16;;;;;;;42.15;18.95;;;;;;;-2.49;100.00;97804.03;4996861;28;20399;-78
2024/01/08 06:10:43;;;;;;;38.85;18.00;;;;;;;-2.51;100.00;97808.53;4994135;28;20465;-78
2024/01/08 06:13:10;;;;;;;37.83;17.23;;;;;;;-2.50;100.00;97809.34;4993714;28;20418;-77
2024/01/08 06:15:36;;;;;;;34.63;16.10;;;;;;;-2.50;100.00;97811.94;4991164;28;20402;-76
2024/01/08 06:18:04;;;;;;;36.80;17.48;;;;;;;-2.49;100.00;97806.63;4993049;28;20807;-78
2024/01/08 06:20:30;;;;;;;35.97;17.05;;;;;;;-2.50;100.00;97817.94;4996634;28;20453;-78
2024/01/08 06:22:58;;;;;;;38.53;17.50;;;;;;;-2.51;100.00;97824.09;4997380;28;20788;-77
2024/01/08 06:25:24;;;;;;;39.78;18.50;;;;;;;-2.53;100.00;97817.44;4996932;28;20425;-78
2024/01/08 06:27:50;;;;;;;37.40;17.80;;;;;;;-2.55;100.00;97822.78;4997390;28;20868;-78
2024/01/08 06:30:17;;;;;;;35.97;17.08;;;;;;;-2.57;100.00;97824.72;4996847;28;20409;-77
2024/01/08 06:32:43;;;;;;;34.70;17.07;;;;;;;-2.58;100.00;97811.91;4997150;28;20410;-77
2024/01/08 06:35:10;;;;;;;33.50;15.95;;;;;;;-2.58;100.00;97819.69;4997263;28;20430;-78
2024/01/08 06:37:37;;;;;;;37.38;16.90;;;;;;;-2.59;100.00;97823.25;4996342;28;21010;-77
2024/01/08 06:40:06;;;;;;;32.23;15.20;;;;;;;-2.60;100.00;97821.63;4996741;28;20843;-78
2024/01/08 06:42:32;;;;;;;29.45;14.52;;;;;;;-2.60;100.00;97826.81;4996879;28;20403;-78
2024/01/08 06:44:58;;;;;;;28.15;13.98;;;;;;;-2.60;100.00;97816.44;4996852;28;20871;-78
2024/01/08 06:47:25;;;;;;;27.88;14.23;;;;;;;-2.59;100.00;97824.06;4997194;28;20843;-78
2024/01/08 06:49:51;;;;;;;29.15;14.13;;;;;;;-2.60;100.00;97814.66;4996848;28;20403;-77
2024/01/08 06:52:18;;;;;;;28.98;13.75;;;;;;;-2.60;100.00;97817.25;4997395;28;20453;-78
2024/01/08 06:54:44;;;;;;;26.33;13.18;;;;;;;-2.60;100.00;97819.84;4997716;28;20406;-78
2024/01/08 06:57:12;;;;;;;31.15;15.15;;;;;;;-2.59;100.00;97825.84;4997313;28;20430;-78
2024/01/08 06:59:38;;;;;;;27.38;13.60;;;;;;;-2.60;100.00;97829.41;4997105;28;20399;-78
2024/01/08 07:02:04;;;;;;;29.55;13.32;;;;;;;-2.61;100.00;97831.19;4997484;28;20501;-78
2024/01/08 07:04:31;;;;;;;27.55;13.20;;;;;;;-2.61;100.00;97831.19;4997030;28;20409;-78
2024/01/08 07:06:57;;;;;;;28.42;13.35;;;;;;;-2.61;100.00;97830.38;4997094;28;20827;-77
2024/01/08 07:09:25;;;;;;;28.65;13.80;;;;;;;-2.61;100.00;97827.78;4996850;28;20434;-77
2024/01/08 07:11:51;;;;;;;27.83;13.07;;;;;;;-2.62;100.00;97826.97;4996697;28;20394;-78
2024/01/08 07:14:19;;;;;;;30.95;14.57;;;;;;;-2.62;100.00;97824.38;4996560;28;20560;-78
2024/01/08 07:16:45;;;;;;;30.02;13.45;;;;;;;-2.61;100.00;97827.78;4995783;28;20941;-77
2024/01/08 07:19:11;;;;;;;26.88;13.00;;;;;;;-2.62;100.00;97834.72;4997424;28;20441;-79
2024/01/08 07:21:38;;;;;;;27.95;13.05;;;;;;;-2.61;100.00;97827.78;4998415;28;20415;-79
2024/01/08 07:24:04;;;;;;;28.95;13.43;;;;;;;-2.60;100.00;97832.00;4997268;28;20858;-78
2024/01/08 07:26:31;;;;;;;28.52;13.43;;;;;;;-2.60;100.00;97837.19;4995553;28;20406;-79
2024/01/08 07:28:57;;;;;;;30.80;14.27;;;;;;;-2.61;100.00;97831.19;4990060;28;20502;-78
2024/01/08 07:31:24;;;;;;;32.70;14.67;;;;;;;-2.61;100.00;97836.38;4992144;28;20398;-78
2024/01/08 07:33:50;;;;;;;28.87;14.20;;;;;;;-2.60;100.00;97842.34;4991689;28;20423;-78
2024/01/08 07:36:17;;;;;;;28.50;13.80;;;;;;;-2.60;100.00;97842.34;4998245;28;20813;-82
2024/01/08 07:38:43;;;;;;;23.92;12.07;;;;;;;-2.60;100.00;97832.81;4997383;28;20406;-77
2024/01/08 07:41:11;;;;;;;31.35;14.88;;;;;;;-2.58;100.00;97835.25;4990007;28;20410;-78
2024/01/08 07:43:37;;;;;;;32.05;15.13;;;;;;;-2.59;100.00;97834.44;4997853;28;20413;-78
2024/01/08 07:46:04;;;;;;;35.60;15.52;;;;;;;-2.58;100.00;97843.03;4983721;28;20408;-78
2024/01/08 07:48:31;;;;;;;32.65;14.80;;;;;;;-2.57;100.00;97852.41;4996922;28;20548;-78
2024/01/08 07:50:58;;;;;;;30.58;14.10;;;;;;;-2.56;100.00;97849.69;4998181;28;20473;-78
2024/01/08 07:53:25;;;;;;;29.00;13.65;;;;;;;-2.54;100.00;97854.69;4998160;28;20472;-78
2024/01/08 07:55:51;;;;;;;30.33;13.20;;;;;;;-2.53;100.00;97853.72;4997490;28;20403;-80
2024/01/08 07:58:17;;;;;;;29.80;13.52;;;;;;;-2.52;100.00;97865.72;4996479;28;20783;-78
2024/01/08 08:00:43;;;;;;;27.35;12.90;;;;;;;-2.52;100.00;97866.53;4996361;28;20449;-78
2024/01/08 08:03:09;;;;;;;30.00;13.77;;;;;;;-2.52;100.00;97857.94;4996098;28;20942;-78
2024/01/08 08:05:39;;;;;;;32.38;13.93;;;;;;;-2.51;100.00;97865.56;4996159;28;20737;-78
2024/01/08 08:08:06;;;;;;;29.70;13.67;;;;;;;-2.49;100.00;97863.63;4995549;28;20426;-78
2024/01/08 08:10:32;;;;;;;31.73;13.32;;;;;;;-2.47;100.00;97861.69;4995907;28;20403;-78
2024/01/08 08:12:58;;;;;;;29.15;13.43;;;;;;;-2.45;100.00;97864.94;4995777;28;20490;-78
2024/01/08 08:15:24;;;;;;;28.23;13.10;;;;;;;-2.42;100.00;97864.63;4996063;28;20759;-78
2024/01/08 08:17:50;;;;;;;27.75;12.40;;;;;;;-2.38;100.00;97865.09;4995371;28;20434;-77
2024/01/08 08:20:17;;;;;;;24.57;11.53;;;;;;;-2.34;100.00;97876.81;4995611;28;20786;-78
2024/01/08 08:22:44;;;;;;;28.85;12.35;;;;;;;-2.33;100.00;97868.84;4996499;28;20853;-78
2024/01/08 08:25:10;;;;;;;29.52;13.20;;;;;;;-2.29;100.00;97877.13;4996846;28;20399;-77
2024/01/08 08:27:36;;;;;;;36.38;14.27;;;;;;;-2.26;100.00;97876.81;4996696;28;20445;-77
2024/01/08 08:30:03;;;;;;;32.63;13.70;;;;;;;-2.23;100.00;97867.91;4995035;28;20466;-77
2024/01/08 08:32:29;;;;;;;31.08;12.85;;;;;;;-2.21;100.00;97869.38;4995146;28;20895;-77
2024/01/08 08:34:55;;;;;;;30.75;12.63;;;;;;;-2.17;100.00;97860.28;4995832;28;20441;-77
2024/01/08 08:37:21;;;;;;;28.38;12.60;;;;;;;-2.13;100.00;97863.38;4994870;28;20765;-77
2024/01/08 08:39:49;;;;;;;30.42;12.98;;;;;;;-2.11;100.00;97867.47;4995783;28;20402;-78
2024/01/08 08:42:15;;;;;;;27.45;12.75;;;;;;;-2.08;100.00;97871.50;4994884;28;20407;-78
2024/01/08 08:44:41;;;;;;;32.72;13.48;;;;;;;-2.06;100.00;97872.97;4994937;28;20417;-78
2024/01/08 08:47:07;;;;;;;35.42;13.60;;;;;;;-2.04;100.00;97872.81;4994815;28;20409;-78
2024/01/08 08:49:34;;;;;;;32.38;14.10;;;;;;;-2.05;100.00;97878.97;4995250;28;20612;-77
2024/01/08 08:52:02;;;;;;;32.92;13.32;;;;;;;-2.06;100.00;97872.97;4994924;28;20421;-78
2024/01/08 08:54:28;;;;;;;30.67;12.95;;;;;;;-2.05;100.00;97872.00;4995113;28;20425;-77
2024/01/08 08:56:55;;;;;;;30.95;13.13;;;;;;;-2.01;100.00;97883.66;4994179;28;20398;-77
2024/01/08 08:59:21;;;;;;;28.88;12.35;;;;;;;-1.98;100.00;97885.13;4994180;28;20454;-78
2024/01/08 09:01:50;;;;;;;32.83;13.10;;;;;;;-1.96;100.00;97885.81;4993456;28;20410;-77
2024/01/08 09:04:16;;;;;;;32.10;14.00;;;;;;;-1.97;100.00;97891.97;4978070;28;20759;-76
2024/01/08 09:06:42;;;;;;;32.95;13.65;;;;;;;-1.96;100.00;97888.41;4973117;28;20397;-76
2024/01/08 09:09:09;;;;;;;35.35;14.20;;;;;;;-1.97;100.00;97904.94;4972511;28;20863;-76
2024/01/08 09:11:37;;;;;;;39.22;15.98;;;;;;;-1.98;100.00;97905.91;4973785;28;20400;-78
2024/01/08 09:14:05;;;;;;;37.20;15.77;;;;;;;-1.99;100.00;97893.88;4973436;28;20905;-77
2024/01/08 09:16:31;;;;;;;35.95;16.23;;;;;;;-1.97;100.00;97904.94;4973050;28;20437;-76
2024/01/08 09:18:57;;;;;;;36.15;16.27;;;;;;;-1.94;100.00;97902.00;4972730;28;20400;-76
2024/01/08 09:21:23;;;;;;;43.92;17.80;;;;;;;-1.90;100.00;97905.09;4972621;28;20415;-77
2024/01/08 09:23:49;;;;;;;40.63;16.77;;;;;;;-1.88;100.00;97905.75;4975843;28;20427;-78
2024/01/08 09:26:16;;;;;;;42.38;18.25;;;;;;;-1.86;100.00;97914.16;4973356;28;20411;-78
2024/01/08 09:28:42;;;;;;;39.78;17.20;;;;;;;-1.85;100.00;97919.19;4973993;28;20886;-78
2024/01/08 09:31:09;;;;;;;38.40;16.00;;;;;;;-1.84;100.00;97918.25;4973457;28;20408;-77
2024/01/08 09:33:36;;;;;;;31.75;14.75;;;;;;;-1.83;100.00;97922.47;4972933;28;20427;-78
2024/01/08 09:36:02;;;;;;;34.67;14.25;;;;;;;-1.81;100.00;97920.53;4974932;28;20396;-78
2024/01/08 09:38:28;;;;;;;31.70;14.02;;;;;;;-1.79;100.00;97918.56;4979246;28;20427;-77
2024/01/08 09:40:55;;;;;;;34.05;14.05;;;;;;;-1.78;100.00;97925.38;4994824;28;20402;-77
2024/01/08 09:43:21;;;;;;;34.88;14.38;;;;;;;-1.76;100.00;97938.19;4996315;28;20406;-78
2024/01/08 09:46:01;;;;;;;34.80;14.85;;;;;;;-1.76;100.00;97936.41;4996293;28;20861;-78
2024/01/08 09:48:30;;;;;;;40.20;15.60;;;;;;;-1.75;100.00;97926.84;4994796;28;20410;-78
2024/01/08 09:50:58;;;;;;;40.43;16.33;;;;;;;-1.77;100.00;97923.59;4994364;28;20415;-78
2024/01/08 09:53:26;;;;;;;49.95;20.30;;;;;;;-1.78;100.00;97929.75;4994368;28;20904;-78
2024/01/08 09:55:53;;;;;;;44.22;18.15;;;;;;;-1.80;100.00;97932.50;4998974;28;20406;-78
2024/01/08 09:58:19;;;;;;;47.90;18.33;;;;;;;-1.81;100.00;97930.09;4999667;28;20398;-78
2024/01/08 10:00:46;;;;;;;44.95;18.35;;;;;;;-1.81;100.00;97923.13;4999040;28;20410;-78
2024/01/08 10:03:13;;;;;;;41.83;16.63;;;;;;;-1.78;100.00;97924.56;4997273;28;20461;-77
2024/01/08 10:05:40;;;;;;;37.08;15.85;;;;;;;-1.75;100.00;97927.66;4995772;28;20439;-76
2024/01/08 10:08:06;;;;;;;34.58;15.38;;;;;;;-1.70;100.00;97927.16;4996020;28;20449;-77
2024/01/08 10:10:33;;;;;;;39.92;15.88;;;;;;;-1.67;100.00;97919.06;4996401;28;20489;-77
2024/01/08 10:12:59;;;;;;;38.28;15.27;;;;;;;-1.64;100.00;97922.16;4995812;28;20486;-76
2024/01/08 10:15:26;;;;;;;34.03;14.25;;;;;;;-1.60;100.00;97925.25;4996865;28;20402;-78
2024/01/08 10:17:55;;;;;;;41.13;17.40;;;;;;;-1.59;100.00;97925.09;4993019;28;20474;-78
2024/01/08 10:20:21;;;;;;;39.17;16.03;;;;;;;-1.56;100.00;97921.34;4999696;28;20402;-78
2024/01/08 10:23:05;;;;;;;39.25;16.75;;;;;;;-1.54;100.00;97927.19;4997896;28;20414;-78
2024/01/08 10:25:31;;;;;;;41.97;17.80;;;;;;;-1.52;100.00;97922.66;4996616;28;20409;-77
2024/01/08 10:27:57;;;;;;;41.80;17.70;;;;;;;-1.51;100.00;97915.69;4989700;28;20404;-77
2024/01/08 10:30:23;;;;;;;41.75;16.83;;;;;;;-1.51;100.00;97919.09;4991896;28;20537;-78
2024/01/08 10:32:49;;;;;;;39.60;17.02;;;;;;;-1.48;100.00;97925.72;4997141;28;20473;-78
2024/01/08 10:35:16;;;;;;;40.30;16.73;;;;;;;-1.46;100.00;97916.00;4997495;28;20473;-78
2024/01/08 10:37:47;;;;;;;37.40;16.03;;;;;;;-1.46;100.00;97914.22;4997664;28;20395;-77
2024/01/08 10:40:15;;;;;;;37.22;15.77;;;;;;;-1.43;100.00;97916.50;4997569;28;20407;-78
2024/01/08 10:42:44;;;;;;;42.47;18.30;;;;;;;-1.39;100.00;97916.97;4997062;28;20405;-78
2024/01/08 10:45:10;;;;;;;37.80;16.05;;;;;;;-1.37;100.00;97918.44;4998864;28;20457;-78
2024/01/08 10:47:42;;;;;;;36.55;15.23;;;;;;;-1.31;100.00;97917.78;4999263;28;20406;-78
2024/01/08 10:50:12;;;;;;;31.42;14.98;;;;;;;-1.22;100.00;97921.19;4999739;28;20394;-78
2024/01/08 10:52:47;;;;;;;29.35;14.05;;;;;;;-1.13;100.00;97909.00;4999965;28;20827;-78
2024/01/08 10:55:16;;;;;;;27.53;12.97;;;;;;;-1.07;100.00;97919.56;5003361;28;20466;-78
2024/01/08 10:57:48;;;;;;;25.33;12.52;;;;;;;-1.01;100.00;97908.50;5001379;28;20433;-78
2024/01/08 11:00:15;;;;;;;29.42;13.65;;;;;;;-0.97;100.00;97908.97;5001519;28;20402;-78
2024/01/08 11:02:42;;;;;;;35.45;14.90;;;;;;;-0.98;100.00;97908.19;4999111;28;20448;-78
2024/01/08 11:05:08;;;;;;;32.17;13.93;;;;;;;-0.98;100.00;97917.75;4979766;28;20396;-78
2024/01/08 11:07:38;;;;;;;28.13;13.48;;;;;;;-1.00;100.00;97915.31;4979480;28;20455;-77